Terminal Aerodrome Forecast
Issued by NWS

Home | Current Version | Previous Version | Text Only | Print | Product List | Glossary On
Versions: 1 2 3 4 5 6 7 8 9 10 11 12 13 14 15 16 17 18 19 20 21
000
FTUS43 KBIS 311133
TAFDIK
TAF
KDIK 311133Z 3112/0112 26014KT P6SM BKN012 OVC025
      TEMPO 3112/3115 SCT012 BKN035
     FM311500 28019G28KT P6SM -SHRA OVC015
     FM312100 30023G32KT P6SM SHRA OVC020
     FM010000 31021G29KT P6SM OVC025
     FM010800 29010KT P6SM SCT020=

USA.gov is the U.S. government's official web portal to all federal, state and local government web resources and services.